createdAt,value
2024-02-16T00:03:01.242Z,7.61
2024-02-16T00:10:21.390Z,7.57
2024-02-16T00:17:41.255Z,7.56
2024-02-16T00:24:59.791Z,7.43
2024-02-16T00:32:18.155Z,7.47
2024-02-16T00:39:37.904Z,7.51
2024-02-16T00:46:56.214Z,7.39
2024-02-16T00:54:14.909Z,7.11
2024-02-16T01:01:34.731Z,6.92
2024-02-16T01:08:52.999Z,6.70
2024-02-16T01:16:12.325Z,6.55
2024-02-16T01:23:32.319Z,6.64
2024-02-16T01:30:51.124Z,6.52
2024-02-16T01:38:09.968Z,6.46
2024-02-16T01:45:29.889Z,6.45
2024-02-16T01:52:49.543Z,6.37
2024-02-16T02:00:09.546Z,6.43
2024-02-16T02:07:30.069Z,6.48
2024-02-16T02:14:49.070Z,6.49
2024-02-16T02:22:15.635Z,6.47
2024-02-16T02:29:34.864Z,6.46
2024-02-16T02:36:54.795Z,6.40
2024-02-16T02:44:17.708Z,6.25
2024-02-16T02:51:36.185Z,6.06
2024-02-16T02:58:54.564Z,5.88
2024-02-16T03:06:14.787Z,5.89
2024-02-16T03:13:34.562Z,5.86
2024-02-16T03:20:53.023Z,5.75
2024-02-16T03:28:14.664Z,5.73
2024-02-16T03:35:33.102Z,5.66
2024-02-16T03:42:51.650Z,5.55
2024-02-16T03:50:12.181Z,5.51
2024-02-16T03:57:30.708Z,5.37
2024-02-16T04:04:49.097Z,5.31
2024-02-16T04:12:10.819Z,5.36
2024-02-16T04:19:29.481Z,5.20
2024-02-16T04:26:47.852Z,5.09
2024-02-16T04:34:07.800Z,5.00
2024-02-16T04:41:26.102Z,4.86
2024-02-16T04:48:44.830Z,4.72
2024-02-16T04:56:06.238Z,4.73
2024-02-16T05:03:24.691Z,4.59
2024-02-16T05:10:43.095Z,4.69
2024-02-16T05:18:03.594Z,4.57
2024-02-16T05:25:22.647Z,4.54
2024-02-16T05:32:43.336Z,4.53
2024-02-16T05:40:20.081Z,4.56
2024-02-16T05:47:39.702Z,4.52
2024-02-16T05:54:58.212Z,4.45
2024-02-16T06:02:18.973Z,4.49
2024-02-16T06:09:38.854Z,4.52
2024-02-16T06:16:57.819Z,4.58
2024-02-16T06:24:20.386Z,4.69
2024-02-16T06:31:38.805Z,4.65
2024-02-16T06:38:58.221Z,5.06
2024-02-16T06:46:17.885Z,5.27
2024-02-16T06:53:36.103Z,5.67
2024-02-16T07:00:54.607Z,5.83
2024-02-16T07:08:14.351Z,5.87
2024-02-16T07:15:33.696Z,6.18
2024-02-16T07:22:53.063Z,6.83
2024-02-16T07:30:18.400Z,7.07
2024-02-16T07:37:43.468Z,7.82
2024-02-16T07:45:02.087Z,8.21
2024-02-16T07:52:21.974Z,8.73
2024-02-16T07:59:41.864Z,9.23
2024-02-16T08:07:02.678Z,10.26
2024-02-16T08:14:22.623Z,10.80
2024-02-16T08:21:40.926Z,10.56
2024-02-16T08:28:59.663Z,10.95
2024-02-16T08:36:20.338Z,11.55
2024-02-16T08:43:38.951Z,12.37
2024-02-16T08:50:57.308Z,12.99
2024-02-16T08:58:17.442Z,12.91
2024-02-16T09:05:36.188Z,11.95
2024-02-16T09:12:54.632Z,11.48
2024-02-16T09:20:15.545Z,12.05
2024-02-16T09:27:34.015Z,12.28
2024-02-16T09:34:52.947Z,11.99
2024-02-16T09:42:16.012Z,11.69
2024-02-16T09:49:39.951Z,11.58
2024-02-16T09:56:59.602Z,11.56
2024-02-16T10:04:19.406Z,12.18
2024-02-16T10:11:40.194Z,13.24
2024-02-16T10:19:00.234Z,14.11
2024-02-16T10:26:20.238Z,15.28
2024-02-16T10:33:39.830Z,14.92
2024-02-16T10:41:01.127Z,15.05
2024-02-16T10:48:21.574Z,15.30
2024-02-16T10:55:40.053Z,15.57
2024-02-16T11:03:00.795Z,15.44
2024-02-16T11:10:20.706Z,15.52
2024-02-16T11:17:39.454Z,15.74
2024-02-16T11:25:00.591Z,15.77
2024-02-16T11:32:22.661Z,15.28
2024-02-16T11:39:42.682Z,15.72
2024-02-16T11:47:01.300Z,16.25
2024-02-16T11:54:20.990Z,15.69
2024-02-16T12:01:39.288Z,15.50
2024-02-16T12:08:57.820Z,15.61
2024-02-16T12:16:17.433Z,15.90
2024-02-16T12:23:36.501Z,15.97
2024-02-16T12:30:54.873Z,16.19
2024-02-16T12:38:15.020Z,15.94
2024-02-16T12:45:34.232Z,16.04
2024-02-16T12:52:59.423Z,16.65
2024-02-16T13:00:23.893Z,16.23
2024-02-16T13:07:43.284Z,16.49
2024-02-16T13:15:14.505Z,16.74
2024-02-16T13:22:42.972Z,16.73
2024-02-16T13:30:01.560Z,15.90
2024-02-16T13:37:20.011Z,16.38
2024-02-16T13:44:39.857Z,15.87
2024-02-16T13:52:00.006Z,14.96
2024-02-16T13:59:19.924Z,15.13
2024-02-16T14:06:40.733Z,15.08
2024-02-16T14:13:59.216Z,14.83
2024-02-16T14:21:17.497Z,14.28
2024-02-16T14:28:37.110Z,14.17
2024-02-16T14:35:55.407Z,13.90
2024-02-16T14:43:13.770Z,13.66
2024-02-16T14:50:36.123Z,13.63
2024-02-16T14:57:55.420Z,13.39
2024-02-16T15:05:14.111Z,13.56
2024-02-16T15:12:34.019Z,13.43
2024-02-16T15:19:52.808Z,13.31
2024-02-16T15:27:11.924Z,13.10
2024-02-16T15:34:32.292Z,13.04
2024-02-16T15:41:50.801Z,12.89
2024-02-16T15:49:09.576Z,12.81
2024-02-16T15:56:29.278Z,12.77
2024-02-16T16:03:47.835Z,12.68
2024-02-16T16:11:06.710Z,12.51
2024-02-16T16:18:26.402Z,12.50
2024-02-16T16:25:44.899Z,12.34
2024-02-16T16:33:03.908Z,12.29
2024-02-16T16:40:23.952Z,12.22
2024-02-16T16:47:42.665Z,12.19
2024-02-16T16:55:01.072Z,12.24
2024-02-16T17:02:21.733Z,12.23
2024-02-16T17:09:40.089Z,12.11
2024-02-16T17:16:58.559Z,12.02
2024-02-16T17:24:18.338Z,11.87
2024-02-16T17:31:36.744Z,11.73
2024-02-16T17:38:55.347Z,11.73
2024-02-16T17:46:15.175Z,11.53
2024-02-16T17:53:33.546Z,11.44
2024-02-16T18:00:52.184Z,11.39
2024-02-16T18:08:12.166Z,11.51
2024-02-16T18:15:30.657Z,11.36
2024-02-16T18:22:50.326Z,11.36
2024-02-16T18:30:11.782Z,11.31
2024-02-16T18:37:30.368Z,11.13
2024-02-16T18:44:49.960Z,11.08
2024-02-16T18:52:10.727Z,11.16
2024-02-16T18:59:29.380Z,11.09
2024-02-16T19:06:47.951Z,11.02
2024-02-16T19:14:07.783Z,11.02
2024-02-16T19:21:26.091Z,10.98
2024-02-16T19:28:44.380Z,10.93
2024-02-16T19:36:04.861Z,10.96
2024-02-16T19:43:25.438Z,10.91
2024-02-16T19:50:44.870Z,10.93
2024-02-16T19:58:04.621Z,11.00
2024-02-16T20:05:25.199Z,10.92
2024-02-16T20:12:43.680Z,10.91
2024-02-16T20:20:06.379Z,10.87
2024-02-16T20:27:25.809Z,10.89
2024-02-16T20:34:44.295Z,10.89
2024-02-16T20:42:04.593Z,10.91
2024-02-16T20:49:23.521Z,10.89
2024-02-16T20:56:41.882Z,10.83
2024-02-16T21:04:02.049Z,10.78
2024-02-16T21:11:20.652Z,10.78
2024-02-16T21:18:39.086Z,10.71
2024-02-16T21:25:58.920Z,10.63
2024-02-16T21:33:17.977Z,10.66
2024-02-16T21:40:37.043Z,10.61
2024-02-16T21:47:57.055Z,10.65
2024-02-16T21:55:23.437Z,10.47
2024-02-16T22:02:46.121Z,10.42
2024-02-16T22:10:11.065Z,10.29
2024-02-16T22:17:33.705Z,10.33
2024-02-16T22:24:53.406Z,10.44
2024-02-16T22:32:20.238Z,10.39
2024-02-16T22:39:46.836Z,10.56
2024-02-16T22:47:14.743Z,10.46
2024-02-16T22:54:35.826Z,10.44
2024-02-16T23:02:00.891Z,10.26
2024-02-16T23:09:37.384Z,10.40
2024-02-16T23:16:58.699Z,10.37
2024-02-16T23:24:18.194Z,10.38
2024-02-16T23:31:42.344Z,10.49
2024-02-16T23:39:06.815Z,10.47
2024-02-16T23:46:26.985Z,10.39
2024-02-16T23:53:46.421Z,10.55
